Time;durP1;ratioP1;P1;durP2;ratioP2;P2;SDS_P1;SDS_P2;PMS_P1;PMS_P2;Temp;Humidity;BMP_temperature;BMP_pressure;BME280_temperature;BME280_humidity;BME280_pressure;Samples;Min_cycle;Max_cycle;Signal;HPM_P1;HPM_P2
2023/12/10 00:01:14;;;;;;;537.78;315.65;;;;;;;5.89;100.00;96436.53;5015086;28;20048;-54
2023/12/10 00:03:39;;;;;;;625.03;303.33;;;;;;;6.11;100.00;96439.81;5013101;28;20124;-53
2023/12/10 00:06:05;;;;;;;569.42;304.48;;;;;;;6.09;100.00;96447.56;5014862;28;20090;-55
2023/12/10 00:08:31;;;;;;;521.55;304.60;;;;;;;6.06;100.00;96442.44;5015764;28;20087;-54
2023/12/10 00:10:56;;;;;;;525.13;310.10;;;;;;;6.02;100.00;96460.53;5015994;28;20171;-54
2023/12/10 00:13:21;;;;;;;522.47;306.98;;;;;;;6.14;100.00;96469.88;5015934;28;20416;-55
2023/12/10 00:15:47;;;;;;;712.78;324.23;;;;;;;6.27;100.00;96484.38;5015028;28;20134;-54
2023/12/10 00:18:12;;;;;;;543.33;313.63;;;;;;;6.41;100.00;96498.88;5017043;28;20471;-54
2023/12/10 00:20:37;;;;;;;751.40;320.05;;;;;;;6.29;100.00;96500.72;5014618;28;20136;-54
2023/12/10 00:23:03;;;;;;;553.97;304.00;;;;;;;6.37;100.00;96508.38;5017702;28;20298;-55
2023/12/10 00:25:31;;;;;;;485.17;283.88;;;;;;;6.50;100.00;96517.72;5016949;28;20037;-55
2023/12/10 00:27:57;;;;;;;531.08;273.40;;;;;;;6.49;100.00;96528.06;5015742;28;20520;-54
2023/12/10 00:30:23;;;;;;;493.13;275.20;;;;;;;6.28;100.00;96531.72;5013928;28;20091;-54
2023/12/10 00:32:48;;;;;;;648.13;289.27;;;;;;;6.30;100.00;96532.53;5014886;28;20114;-55
2023/12/10 00:35:13;;;;;;;504.30;277.42;;;;;;;6.22;100.00;96541.25;5015762;28;20140;-56
2023/12/10 00:37:39;;;;;;;693.40;287.27;;;;;;;6.11;100.00;96543.91;5014993;28;20405;-55
2023/12/10 00:40:06;;;;;;;469.00;279.05;;;;;;;5.94;100.00;96550.91;5015894;28;20947;-55
2023/12/10 00:42:32;;;;;;;501.15;276.33;;;;;;;6.05;100.00;96551.69;5013616;28;20037;-55
2023/12/10 00:44:57;;;;;;;485.10;280.10;;;;;;;6.05;100.00;96561.19;5017567;28;20400;-56
2023/12/10 00:47:23;;;;;;;523.20;285.50;;;;;;;6.04;100.00;96573.22;5015246;28;20572;-55
2023/12/10 00:49:48;;;;;;;710.08;305.85;;;;;;;6.12;100.00;96584.34;5015899;28;20056;-55
2023/12/10 00:52:14;;;;;;;492.65;268.42;;;;;;;6.19;100.00;96587.72;5015980;28;20448;-55
2023/12/10 00:54:40;;;;;;;608.15;289.30;;;;;;;6.19;100.00;96592.91;5016304;28;20017;-55
2023/12/10 00:57:05;;;;;;;511.38;276.20;;;;;;;6.24;100.00;96600.63;5019349;28;20033;-55
2023/12/10 00:59:30;;;;;;;496.48;278.60;;;;;;;6.38;100.00;96603.06;5014761;28;20032;-56
2023/12/10 01:01:56;;;;;;;560.33;280.95;;;;;;;6.30;100.00;96615.16;5018791;28;20022;-55
2023/12/10 01:04:22;;;;;;;512.33;287.90;;;;;;;6.26;100.00;96622.09;5020107;28;20029;-57
2023/12/10 01:06:47;;;;;;;643.33;294.27;;;;;;;6.42;100.00;96627.16;5020395;28;20033;-55
2023/12/10 01:09:15;;;;;;;560.72;288.30;;;;;;;6.49;100.00;96637.41;5020080;28;20034;-53
2023/12/10 01:11:41;;;;;;;666.45;297.75;;;;;;;6.46;100.00;96637.41;5018553;28;20216;-54
2023/12/10 01:14:07;;;;;;;504.05;280.75;;;;;;;6.68;100.00;96646.72;5021184;28;20524;-55
2023/12/10 01:16:32;;;;;;;543.90;290.58;;;;;;;6.73;100.00;96650.09;5019852;28;20068;-55
2023/12/10 01:18:57;;;;;;;564.00;301.77;;;;;;;6.81;100.00;96674.16;5018494;28;20511;-56
2023/12/10 01:21:23;;;;;;;485.83;267.75;;;;;;;6.84;100.00;96673.25;5017974;28;20038;-55
2023/12/10 01:23:50;;;;;;;634.92;288.25;;;;;;;6.87;100.00;96683.56;5019653;28;20069;-55
2023/12/10 01:26:16;;;;;;;527.20;284.13;;;;;;;6.88;100.00;96691.31;5020349;28;20033;-54
2023/12/10 01:28:41;;;;;;;602.38;284.08;;;;;;;6.96;100.00;96696.41;5019469;28;20017;-55
2023/12/10 01:31:07;;;;;;;531.35;280.40;;;;;;;7.08;100.00;96695.41;5018902;28;20037;-54
2023/12/10 01:33:33;;;;;;;525.40;279.98;;;;;;;7.10;100.00;96685.06;5020656;28;20057;-55
2023/12/10 01:35:58;;;;;;;565.65;285.25;;;;;;;7.15;100.00;96694.50;5017347;28;20176;-55
2023/12/10 01:38:24;;;;;;;529.33;283.88;;;;;;;7.18;100.00;96693.59;5014551;28;20116;-54
2023/12/10 01:40:49;;;;;;;634.92;295.00;;;;;;;7.23;100.00;96703.88;5017933;28;20223;-54
2023/12/10 01:43:17;;;;;;;534.67;291.85;;;;;;;7.22;100.00;96710.78;5020041;28;20029;-54
2023/12/10 01:45:53;;;;;;;643.63;293.80;;;;;;;7.29;100.00;96716.75;5018698;28;20502;-54
2023/12/10 01:48:23;;;;;;;532.88;288.38;;;;;;;7.46;100.00;96713.13;5019885;28;20679;-54
2023/12/10 01:50:50;;;;;;;692.33;294.80;;;;;;;7.84;100.00;96722.16;5018472;28;20049;-55
2023/12/10 01:53:16;;;;;;;544.22;285.25;;;;;;;7.78;100.00;96735.16;5018381;28;20444;-54
2023/12/10 01:55:42;;;;;;;705.25;301.52;;;;;;;7.80;100.00;96738.63;5017259;28;20099;-56
2023/12/10 01:58:09;;;;;;;562.80;293.55;;;;;;;7.69;100.00;96739.59;5019294;28;20422;-55
2023/12/10 02:00:35;;;;;;;562.45;291.65;;;;;;;7.66;100.00;96750.00;5019769;28;20045;-56
2023/12/10 02:03:02;;;;;;;580.20;293.90;;;;;;;8.00;100.00;96761.66;5017790;28;20032;-54
2023/12/10 02:05:28;;;;;;;556.88;297.80;;;;;;;7.98;100.00;96765.97;5019512;28;20079;-55
2023/12/10 02:07:53;;;;;;;696.80;300.42;;;;;;;7.94;100.00;96765.16;5018323;28;20429;-55
2023/12/10 02:10:19;;;;;;;569.67;278.30;;;;;;;7.92;100.00;96774.69;5019034;28;20588;-53
2023/12/10 02:12:46;;;;;;;653.65;280.27;;;;;;;7.99;100.00;96774.63;5018535;28;20383;-55
2023/12/10 02:15:13;;;;;;;522.75;272.92;;;;;;;8.30;100.00;96769.88;5019508;28;20021;-54
2023/12/10 02:17:39;;;;;;;581.25;274.75;;;;;;;8.32;100.00;96777.63;5018862;28;20044;-55
2023/12/10 02:20:05;;;;;;;573.92;282.65;;;;;;;8.35;100.00;96782.75;5018799;28;20021;-55
2023/12/10 02:22:31;;;;;;;539.53;275.13;;;;;;;8.11;100.00;96783.94;5019043;28;20293;-55
2023/12/10 02:25:03;;;;;;;565.65;287.52;;;;;;;8.36;100.00;96784.50;5017213;28;20040;-56
2023/12/10 02:27:29;;;;;;;555.07;288.73;;;;;;;8.23;100.00;96799.34;5019055;28;20041;-53
2023/12/10 02:29:55;;;;;;;727.65;305.70;;;;;;;8.15;100.00;96809.81;5016717;28;20056;-55
2023/12/10 02:32:21;;;;;;;541.30;294.63;;;;;;;8.30;100.00;96820.81;5017279;28;20565;-55
2023/12/10 02:34:46;;;;;;;750.60;310.75;;;;;;;8.92;100.00;96822.59;5016830;28;20039;-54
2023/12/10 02:37:11;;;;;;;589.50;289.65;;;;;;;8.99;100.00;96824.19;5018574;28;20033;-55
2023/12/10 02:39:37;;;;;;;555.70;289.45;;;;;;;8.79;100.00;96845.25;5017859;28;20037;-54
2023/12/10 02:42:03;;;;;;;605.45;296.52;;;;;;;8.71;100.00;96841.91;5010398;28;20487;-54
2023/12/10 02:44:28;;;;;;;586.95;299.23;;;;;;;8.42;100.00;96849.16;5017786;28;20232;-56
2023/12/10 02:46:53;;;;;;;697.65;306.15;;;;;;;9.02;100.00;96846.63;5018137;28;20540;-55
2023/12/10 02:49:19;;;;;;;591.50;282.75;;;;;;;8.75;100.00;96847.91;5018490;28;20025;-56
2023/12/10 02:51:44;;;;;;;640.00;284.45;;;;;;;8.52;100.00;96846.44;5016296;28;20033;-55
2023/12/10 02:54:10;;;;;;;586.78;287.75;;;;;;;8.86;100.00;96848.59;5019219;28;20513;-55
2023/12/10 02:56:35;;;;;;;583.55;285.33;;;;;;;8.53;100.00;96859.44;5017253;28;20038;-55
2023/12/10 02:59:00;;;;;;;592.13;288.73;;;;;;;9.14;100.00;96855.97;5016718;28;20067;-56
2023/12/10 03:01:29;;;;;;;532.08;286.35;;;;;;;8.55;100.00;96873.22;5018225;28;20072;-55
2023/12/10 03:03:54;;;;;;;765.50;305.92;;;;;;;8.51;100.00;96874.13;5016877;28;20048;-53
2023/12/10 03:06:19;;;;;;;550.53;280.65;;;;;;;8.38;100.00;96870.81;5018387;28;20472;-54
2023/12/10 03:08:45;;;;;;;682.25;295.75;;;;;;;8.39;100.00;96872.53;5018036;28;20037;-55
2023/12/10 03:11:10;;;;;;;600.35;278.60;;;;;;;8.71;100.00;96879.06;5016619;28;20059;-56
2023/12/10 03:13:35;;;;;;;548.95;281.85;;;;;;;8.51;100.00;96883.63;5019528;28;20124;-56
2023/12/10 03:16:01;;;;;;;531.33;277.27;;;;;;;8.51;100.00;96875.84;5016990;28;20634;-56
2023/12/10 03:18:27;;;;;;;584.58;283.23;;;;;;;8.56;100.00;96881.84;5018823;28;20037;-54
2023/12/10 03:20:53;;;;;;;624.35;277.33;;;;;;;8.40;100.00;96873.38;5015621;28;20049;-56
2023/12/10 03:23:18;;;;;;;556.58;283.90;;;;;;;8.58;100.00;96880.09;5018896;28;20029;-53
2023/12/10 03:25:44;;;;;;;650.30;292.30;;;;;;;8.80;100.00;96887.59;5017248;28;20052;-55
2023/12/10 03:28:09;;;;;;;571.63;289.73;;;;;;;8.81;100.00;96886.72;5018300;28;20112;-56
2023/12/10 03:30:34;;;;;;;563.58;294.63;;;;;;;8.50;100.00;96884.50;5018459;28;20207;-55
2023/12/10 03:33:00;;;;;;;734.85;299.40;;;;;;;8.61;100.00;96893.00;5017007;28;20041;-53
2023/12/10 03:35:25;;;;;;;549.13;285.65;;;;;;;8.63;100.00;96899.03;5019114;28;20036;-55
2023/12/10 03:37:50;;;;;;;686.03;280.67;;;;;;;8.72;100.00;96904.09;5018025;28;20455;-54
2023/12/10 03:40:16;;;;;;;609.65;273.80;;;;;;;8.69;100.00;96906.72;5016961;28;20068;-55
2023/12/10 03:42:41;;;;;;;530.45;256.88;;;;;;;9.16;100.00;96908.66;5018927;28;20022;-57
2023/12/10 03:45:07;;;;;;;552.95;269.48;;;;;;;8.83;100.00;96908.28;5016628;28;20024;-56
2023/12/10 03:47:33;;;;;;;595.67;281.67;;;;;;;8.64;100.00;96918.88;5017985;28;20443;-54
2023/12/10 03:49:58;;;;;;;711.72;290.83;;;;;;;8.57;100.00;96914.66;5017241;28;20029;-56
2023/12/10 03:52:23;;;;;;;531.67;268.85;;;;;;;8.20;100.00;96921.09;5018483;28;20571;-55
2023/12/10 03:54:49;;;;;;;734.67;282.65;;;;;;;8.21;100.00;96931.44;5017149;28;20040;-53
2023/12/10 03:57:14;;;;;;;511.60;260.85;;;;;;;8.33;100.00;96935.66;5018465;28;20574;-53
2023/12/10 03:59:39;;;;;;;531.88;266.30;;;;;;;8.23;100.00;96935.78;5018847;28;20104;-55
2023/12/10 04:02:05;;;;;;;591.42;274.20;;;;;;;8.53;100.00;96944.06;5016290;28;20046;-55
2023/12/10 04:04:30;;;;;;;502.55;262.73;;;;;;;8.77;100.00;96947.25;5019495;28;20018;-54
2023/12/10 04:06:56;;;;;;;684.83;285.80;;;;;;;8.51;100.00;96948.41;5016982;28;20053;-54
2023/12/10 04:09:21;;;;;;;572.60;281.88;;;;;;;8.10;100.00;96947.97;5017828;28;20068;-57
2023/12/10 04:11:47;;;;;;;600.40;276.17;;;;;;;8.32;100.00;96949.47;5016113;28;20053;-56
2023/12/10 04:14:12;;;;;;;576.03;282.90;;;;;;;8.26;100.00;96954.72;5016929;28;20065;-55
2023/12/10 04:16:38;;;;;;;589.75;288.40;;;;;;;8.27;100.00;96965.94;5017678;28;20041;-54
2023/12/10 04:19:04;;;;;;;648.15;293.02;;;;;;;8.02;100.00;96961.84;5016130;28;20028;-55
2023/12/10 04:21:29;;;;;;;530.33;283.08;;;;;;;8.13;100.00;96976.44;5018002;28;20662;-55
2023/12/10 04:23:55;;;;;;;734.60;304.58;;;;;;;8.41;100.00;96973.56;5016270;28;20408;-55
2023/12/10 04:26:21;;;;;;;542.25;290.73;;;;;;;8.33;100.00;96978.81;5018120;28;20048;-54
2023/12/10 04:28:46;;;;;;;574.47;292.42;;;;;;;8.21;100.00;96975.47;5014476;28;20366;-54
2023/12/10 04:31:12;;;;;;;616.50;299.70;;;;;;;8.35;100.00;96984.84;5016714;28;20540;-54
2023/12/10 04:33:37;;;;;;;551.10;303.02;;;;;;;8.22;100.00;96984.13;5022961;28;20404;-54
2023/12/10 04:36:03;;;;;;;729.88;321.20;;;;;;;8.55;100.00;96982.09;5018887;28;20136;-55
2023/12/10 04:38:29;;;;;;;588.85;314.67;;;;;;;8.49;100.00;96991.63;5022266;28;20112;-56
2023/12/10 04:40:54;;;;;;;704.20;328.38;;;;;;;8.41;100.00;96997.75;5018895;28;20527;-53
2023/12/10 04:43:20;;;;;;;576.42;284.02;;;;;;;8.38;100.00;97000.34;5022121;28;20013;-54
2023/12/10 04:45:46;;;;;;;618.30;295.33;;;;;;;8.26;100.00;96996.16;5021267;28;20055;-53
2023/12/10 04:48:15;;;;;;;587.63;295.35;;;;;;;8.36;100.00;97003.84;5019100;28;20068;-54
2023/12/10 04:50:40;;;;;;;570.80;295.63;;;;;;;8.19;100.00;97010.91;5020318;28;20046;-54
2023/12/10 04:53:07;;;;;;;615.60;315.70;;;;;;;8.38;100.00;97013.31;5019671;28;20048;-57
2023/12/10 04:55:32;;;;;;;542.10;299.88;;;;;;;8.58;100.00;97018.31;5021237;28;20089;-55
2023/12/10 04:57:58;;;;;;;732.35;306.10;;;;;;;8.39;100.00;97014.19;5018632;28;20118;-55
2023/12/10 05:00:23;;;;;;;583.50;303.92;;;;;;;8.69;100.00;97025.97;5020717;28;20485;-54
2023/12/10 05:02:49;;;;;;;576.13;311.55;;;;;;;8.17;100.00;97042.88;5019743;28;20104;-55
2023/12/10 05:05:14;;;;;;;614.17;312.92;;;;;;;8.24;100.00;97041.94;5021093;28;20129;-56
2023/12/10 05:07:40;;;;;;;589.13;300.50;;;;;;;8.24;100.00;97049.72;5020897;28;20033;-53
2023/12/10 05:10:06;;;;;;;713.75;328.02;;;;;;;8.56;100.00;97047.72;5018009;28;20068;-54
2023/12/10 05:12:31;;;;;;;575.03;289.38;;;;;;;8.25;100.00;97055.75;5020108;28;20030;-55
2023/12/10 05:14:57;;;;;;;700.17;301.27;;;;;;;8.24;100.00;97060.06;5019588;28;20136;-56
2023/12/10 05:17:22;;;;;;;544.53;290.58;;;;;;;8.37;100.00;97060.84;5022098;28;20156;-57
2023/12/10 05:19:48;;;;;;;565.15;281.17;;;;;;;8.84;100.00;97068.16;5021505;28;20127;-54
2023/12/10 05:22:13;;;;;;;554.80;294.15;;;;;;;8.82;100.00;97080.28;5018010;28;20032;-54
2023/12/10 05:24:40;;;;;;;551.65;290.30;;;;;;;8.92;100.00;97081.91;5020523;28;20456;-56
2023/12/10 05:27:06;;;;;;;756.28;306.48;;;;;;;8.43;100.00;97091.00;5018542;28;20033;-55
2023/12/10 05:29:31;;;;;;;544.95;286.02;;;;;;;8.20;100.00;97097.22;5021443;28;20366;-58
2023/12/10 05:31:56;;;;;;;660.15;300.67;;;;;;;8.24;100.00;97104.09;5017012;28;20056;-54
2023/12/10 05:34:22;;;;;;;605.20;307.52;;;;;;;7.99;100.00;97099.16;5021114;28;20029;-55
2023/12/10 05:36:47;;;;;;;553.35;299.80;;;;;;;8.00;100.00;97110.34;5021226;28;20112;-55
2023/12/10 05:39:13;;;;;;;540.88;282.02;;;;;;;7.62;100.00;97118.38;5019352;28;20025;-55
2023/12/10 05:41:39;;;;;;;578.00;277.38;;;;;;;7.95;100.00;97105.22;5018184;28;20041;-56
2023/12/10 05:44:05;;;;;;;639.58;291.83;;;;;;;7.68;100.00;97110.56;5017628;28;20025;-57
2023/12/10 05:46:31;;;;;;;558.53;287.60;;;;;;;7.45;100.00;97110.66;5019160;28;20044;-57
2023/12/10 05:48:56;;;;;;;741.28;307.73;;;;;;;7.63;100.00;97114.91;5019066;28;20030;-55
2023/12/10 05:51:21;;;;;;;548.30;294.80;;;;;;;7.36;100.00;97124.53;5018693;28;20057;-57
2023/12/10 05:53:47;;;;;;;517.17;293.95;;;;;;;7.54;100.00;97123.56;5021348;28;20377;-57
2023/12/10 05:56:12;;;;;;;605.30;305.65;;;;;;;7.85;100.00;97124.25;5018387;28;20040;-54
2023/12/10 05:58:38;;;;;;;546.05;301.33;;;;;;;7.76;100.00;97131.19;5020161;28;20044;-57
2023/12/10 06:01:03;;;;;;;653.50;319.08;;;;;;;7.61;100.00;97137.31;5018041;28;20045;-54
2023/12/10 06:03:29;;;;;;;584.08;314.83;;;;;;;7.52;100.00;97145.13;5020791;28;20017;-56
2023/12/10 06:05:54;;;;;;;616.85;319.58;;;;;;;7.20;100.00;97153.91;5017587;28;20053;-57
2023/12/10 06:08:20;;;;;;;554.38;319.75;;;;;;;7.10;100.00;97153.94;5017479;28;20173;-55
2023/12/10 06:10:45;;;;;;;608.45;328.48;;;;;;;6.95;100.00;97151.38;5017610;28;20029;-56
2023/12/10 06:13:10;;;;;;;585.83;337.95;;;;;;;6.72;100.00;97155.72;5017653;28;20408;-57
2023/12/10 06:15:36;;;;;;;566.88;341.40;;;;;;;6.64;100.00;97155.72;5020610;28;20119;-56
2023/12/10 06:18:02;;;;;;;728.17;363.20;;;;;;;6.82;100.00;97166.91;5017147;28;20025;-56
2023/12/10 06:20:27;;;;;;;540.83;347.13;;;;;;;7.04;100.00;97169.44;5020302;28;20038;-55
2023/12/10 06:22:53;;;;;;;557.72;349.33;;;;;;;7.18;100.00;97176.31;5019362;28;20187;-57
2023/12/10 06:25:18;;;;;;;601.97;354.38;;;;;;;7.24;100.00;97169.38;5019456;28;20478;-55
2023/12/10 06:27:43;;;;;;;577.08;353.20;;;;;;;7.62;100.00;97171.84;5019081;28;20536;-55
2023/12/10 06:30:09;;;;;;;734.03;364.33;;;;;;;7.55;100.00;97178.78;5017279;28;20485;-57
2023/12/10 06:32:35;;;;;;;586.65;352.08;;;;;;;7.61;100.00;97185.66;5019328;28;20503;-58
2023/12/10 06:35:01;;;;;;;682.42;337.50;;;;;;;7.54;100.00;97183.06;5017777;28;20025;-57
2023/12/10 06:37:26;;;;;;;564.00;350.25;;;;;;;6.98;100.00;97185.84;5019697;28;20734;-56
2023/12/10 06:39:51;;;;;;;543.88;352.02;;;;;;;6.91;100.00;97189.31;5019772;28;20605;-56
2023/12/10 06:42:17;;;;;;;553.08;341.60;;;;;;;7.00;100.00;97185.84;5018216;28;20025;-58
2023/12/10 06:44:42;;;;;;;578.17;347.65;;;;;;;6.82;100.00;97192.75;5018533;28;20415;-56
2023/12/10 06:47:08;;;;;;;694.92;359.95;;;;;;;7.00;100.00;97196.19;5017180;28;20041;-59
2023/12/10 06:49:34;;;;;;;576.30;357.35;;;;;;;7.01;100.00;97197.88;5012045;28;20025;-58
2023/12/10 06:51:59;;;;;;;717.97;365.15;;;;;;;7.06;100.00;97209.09;5013918;28;20081;-57
2023/12/10 06:54:25;;;;;;;583.85;356.35;;;;;;;6.98;100.00;97209.09;5019218;28;20018;-55
2023/12/10 06:56:50;;;;;;;568.25;357.48;;;;;;;7.05;100.00;97222.03;5019299;28;20140;-54
2023/12/10 06:59:16;;;;;;;583.40;363.17;;;;;;;6.89;100.00;97227.22;5018873;28;20036;-57
2023/12/10 07:01:41;;;;;;;574.38;360.80;;;;;;;6.77;100.00;97231.53;5018873;28;20037;-57
2023/12/10 07:04:09;;;;;;;708.72;364.35;;;;;;;6.89;100.00;97230.66;5018384;28;20021;-58
2023/12/10 07:06:35;;;;;;;532.92;330.92;;;;;;;7.23;100.00;97240.09;5019811;28;20354;-56
2023/12/10 07:09:01;;;;;;;703.17;349.00;;;;;;;7.46;100.00;97239.16;5018947;28;20033;-57
2023/12/10 07:11:26;;;;;;;545.97;335.58;;;;;;;7.19;100.00;97237.53;5019300;28;20041;-55
2023/12/10 07:13:53;;;;;;;563.45;324.60;;;;;;;7.38;100.00;97246.09;5019290;28;20041;-56
2023/12/10 07:16:22;;;;;;;567.38;329.30;;;;;;;7.38;100.00;97248.66;5016376;28;20033;-56
2023/12/10 07:18:47;;;;;;;539.33;300.50;;;;;;;7.60;100.00;97259.81;5019616;28;20582;-56
2023/12/10 07:21:12;;;;;;;687.67;318.63;;;;;;;7.49;100.00;97264.16;5016912;28;20334;-56
2023/12/10 07:23:38;;;;;;;524.20;295.65;;;;;;;7.59;100.00;97262.41;5020516;28;20592;-58
2023/12/10 07:26:04;;;;;;;667.33;327.73;;;;;;;7.62;100.00;97270.19;5018193;28;20041;-56
2023/12/10 07:28:30;;;;;;;529.10;290.90;;;;;;;8.05;100.00;97272.59;5018394;28;20037;-57
2023/12/10 07:30:55;;;;;;;545.50;306.55;;;;;;;7.87;100.00;97265.75;5018332;28;20048;-56
2023/12/10 07:33:21;;;;;;;514.50;278.95;;;;;;;8.04;100.00;97273.47;5018490;28;20022;-57
2023/12/10 07:35:46;;;;;;;604.72;301.67;;;;;;;8.08;100.00;97282.06;5019985;28;20509;-57
2023/12/10 07:38:12;;;;;;;559.05;298.98;;;;;;;8.36;100.00;97275.91;5020767;28;20061;-56
2023/12/10 07:40:37;;;;;;;548.13;307.35;;;;;;;8.49;100.00;97290.50;5020215;28;20153;-56
2023/12/10 07:43:03;;;;;;;641.08;301.40;;;;;;;8.16;100.00;97287.22;5021448;28;20022;-57
2023/12/10 07:45:28;;;;;;;540.35;302.80;;;;;;;8.30;100.00;97279.38;5021381;28;20041;-54
2023/12/10 07:47:53;;;;;;;528.05;289.92;;;;;;;7.96;100.00;97283.00;5021409;28;20139;-56
2023/12/10 07:50:19;;;;;;;574.47;308.50;;;;;;;8.14;100.00;97286.38;5019472;28;20039;-57
2023/12/10 07:52:44;;;;;;;528.15;304.15;;;;;;;8.20;100.00;97287.19;5020530;28;20029;-55
2023/12/10 07:55:10;;;;;;;610.55;320.58;;;;;;;8.39;100.00;97284.50;5020753;28;20021;-57
2023/12/10 07:57:36;;;;;;;599.60;313.00;;;;;;;8.93;100.00;97288.50;5021019;28;20045;-58
2023/12/10 08:00:05;;;;;;;614.53;316.92;;;;;;;8.54;100.00;97296.53;5020686;28;20520;-56
2023/12/10 08:02:31;;;;;;;532.47;322.20;;;;;;;8.52;100.00;97299.97;5021118;28;20253;-55
2023/12/10 08:04:57;;;;;;;608.50;343.63;;;;;;;8.78;100.00;97302.44;5021620;28;20039;-55
2023/12/10 08:07:22;;;;;;;571.67;337.15;;;;;;;8.79;100.00;97311.06;5024936;28;20029;-56
2023/12/10 08:09:47;;;;;;;577.40;343.52;;;;;;;8.80;100.00;97310.22;5024347;28;20587;-56
2023/12/10 08:12:13;;;;;;;688.05;359.02;;;;;;;9.42;100.00;97317.47;5024005;28;20428;-57
2023/12/10 08:14:38;;;;;;;576.05;348.00;;;;;;;9.06;100.00;97322.13;5025815;28;20025;-56
2023/12/10 08:17:04;;;;;;;607.33;322.58;;;;;;;9.25;100.00;97331.44;5023944;28;20421;-58
2023/12/10 08:19:29;;;;;;;605.88;316.02;;;;;;;9.10;100.00;97331.59;5024017;28;20018;-56
2023/12/10 08:21:54;;;;;;;566.03;321.33;;;;;;;8.98;100.00;97327.34;5023204;28;20110;-56
2023/12/10 08:24:20;;;;;;;582.08;330.27;;;;;;;8.85;100.00;97337.84;5024784;28;20044;-56
2023/12/10 08:26:45;;;;;;;614.40;335.35;;;;;;;9.61;100.00;97338.03;5023607;28;20032;-56
2023/12/10 08:29:11;;;;;;;657.05;348.27;;;;;;;9.43;100.00;97350.31;5021568;28;20034;-55
2023/12/10 08:31:36;;;;;;;596.72;346.48;;;;;;;9.48;100.00;97350.28;5024169;28;20432;-56
2023/12/10 08:34:01;;;;;;;645.30;353.65;;;;;;;9.29;100.00;97347.88;5024637;28;20026;-56
2023/12/10 08:36:27;;;;;;;621.60;361.60;;;;;;;9.67;100.00;97363.09;5024313;28;20116;-57
2023/12/10 08:38:52;;;;;;;623.10;367.45;;;;;;;10.11;100.00;97356.59;5022464;28;20045;-55
2023/12/10 08:41:17;;;;;;;668.42;375.50;;;;;;;9.60;100.00;97360.56;5021326;28;20501;-54
2023/12/10 08:43:43;;;;;;;567.28;300.40;;;;;;;9.79;100.00;97362.13;5024365;28;20028;-55
2023/12/10 08:46:08;;;;;;;577.58;273.38;;;;;;;10.10;100.00;97351.41;5022943;28;20538;-55
2023/12/10 08:48:34;;;;;;;622.35;324.88;;;;;;;9.83;100.00;97356.03;5014533;28;20017;-55
2023/12/10 08:50:59;;;;;;;570.22;311.92;;;;;;;9.64;100.00;97358.78;5021088;28;20104;-56
2023/12/10 08:53:25;;;;;;;595.55;332.33;;;;;;;10.27;100.00;97366.78;5024044;28;20092;-57
2023/12/10 08:55:50;;;;;;;617.15;326.65;;;;;;;9.38;100.00;97365.09;5021459;28;20053;-56
2023/12/10 08:58:16;;;;;;;575.05;329.27;;;;;;;9.75;100.00;97372.53;5023287;28;20030;-55
2023/12/10 09:00:41;;;;;;;612.90;330.65;;;;;;;9.76;100.00;97366.47;5022679;28;20534;-57
2023/12/10 09:03:07;;;;;;;673.53;335.80;;;;;;;10.32;100.00;97377.13;5020893;28;20045;-56
2023/12/10 09:05:33;;;;;;;596.80;344.88;;;;;;;10.64;100.00;97373.28;5023128;28;20052;-57
2023/12/10 09:07:58;;;;;;;600.45;315.20;;;;;;;10.71;100.00;97372.31;5022265;28;20128;-55
2023/12/10 09:10:24;;;;;;;623.60;334.60;;;;;;;10.22;100.00;97392.84;5020011;28;20075;-55
2023/12/10 09:12:49;;;;;;;587.70;341.52;;;;;;;10.25;100.00;97392.78;5022750;28;20117;-56
2023/12/10 09:15:14;;;;;;;667.05;359.27;;;;;;;10.16;100.00;97387.69;5021495;28;20060;-55
2023/12/10 09:17:40;;;;;;;663.63;357.95;;;;;;;9.79;100.00;97385.50;5021773;28;20044;-56
2023/12/10 09:20:07;;;;;;;653.63;359.65;;;;;;;10.29;100.00;97396.22;5021932;28;20029;-58
2023/12/10 09:22:32;;;;;;;593.95;343.63;;;;;;;9.94;100.00;97400.91;5019704;28;20045;-54
2023/12/10 09:24:58;;;;;;;608.03;328.00;;;;;;;10.69;100.00;97402.66;5022127;28;20444;-55
2023/12/10 09:27:23;;;;;;;552.95;296.50;;;;;;;10.49;100.00;97383.00;5020932;28;20483;-54
2023/12/10 09:29:49;;;;;;;623.78;320.98;;;;;;;11.06;100.00;97381.34;5022511;28;20091;-54
2023/12/10 09:32:16;;;;;;;649.58;328.08;;;;;;;10.44;100.00;97399.50;5014472;28;20033;-54
2023/12/10 09:34:43;;;;;;;572.83;301.30;;;;;;;11.12;100.00;97395.13;5023379;28;20552;-56
2023/12/10 09:37:11;;;;;;;645.67;307.48;;;;;;;12.06;100.00;97378.84;5021154;28;20033;-56
2023/12/10 09:39:36;;;;;;;587.38;310.48;;;;;;;11.43;100.00;97395.53;5022684;28;20249;-55
2023/12/10 09:42:02;;;;;;;597.42;307.77;;;;;;;11.91;100.00;97380.81;5018807;28;20555;-57
2023/12/10 09:44:28;;;;;;;603.65;305.65;;;;;;;12.42;100.00;97372.91;5021860;28;20033;-56
2023/12/10 09:46:53;;;;;;;590.22;290.83;;;;;;;11.95;100.00;97390.28;5022324;28;20121;-56
2023/12/10 09:49:21;;;;;;;653.03;290.88;;;;;;;12.57;100.00;97383.03;5021988;28;20057;-57
2023/12/10 09:51:47;;;;;;;567.10;279.48;;;;;;;11.40;100.00;97386.91;5021968;28;20168;-56
2023/12/10 09:54:13;;;;;;;635.47;281.05;;;;;;;11.84;100.00;97379.22;5020894;28;20470;-58
2023/12/10 09:56:39;;;;;;;586.80;297.25;;;;;;;11.85;100.00;97370.50;5022168;28;20157;-56
2023/12/10 09:59:05;;;;;;;672.13;319.55;;;;;;;13.67;100.00;97371.78;5018964;28;20420;-58
2023/12/10 10:01:31;;;;;;;612.53;323.55;;;;;;;12.69;100.00;97374.06;5021973;28;20050;-56
2023/12/10 10:03:57;;;;;;;613.17;325.05;;;;;;;12.37;100.00;97373.03;5021159;28;20033;-57
2023/12/10 10:06:22;;;;;;;695.88;352.92;;;;;;;13.08;100.00;97352.34;5020115;28;20045;-55
2023/12/10 10:08:48;;;;;;;652.38;332.23;;;;;;;11.96;100.00;97365.09;5022773;28;20057;-58
2023/12/10 10:11:13;;;;;;;640.00;320.98;;;;;;;12.57;100.00;97376.94;5020497;28;20029;-57
2023/12/10 10:13:50;;;;;;;652.53;343.02;;;;;;;12.91;100.00;97357.94;5021149;28;20061;-57
2023/12/10 10:16:16;;;;;;;694.78;357.33;;;;;;;12.51;100.00;97364.91;5019744;28;20619;-55
2023/12/10 10:18:43;;;;;;;673.25;356.17;;;;;;;12.41;100.00;97365.97;5022408;28;20548;-57
2023/12/10 10:21:10;;;;;;;695.20;362.48;;;;;;;12.39;100.00;97373.00;5018924;28;20045;-57
2023/12/10 10:23:35;;;;;;;629.10;347.50;;;;;;;12.03;100.00;97384.09;5020758;28;20366;-57
2023/12/10 10:26:01;;;;;;;649.67;332.45;;;;;;;13.14;100.00;97390.50;5019915;28;20036;-56
2023/12/10 10:28:27;;;;;;;608.63;332.05;;;;;;;13.45;100.00;97396.72;5021323;28;20114;-55
2023/12/10 10:30:53;;;;;;;633.70;352.60;;;;;;;12.94;100.00;97414.41;5020772;28;20128;-56
2023/12/10 10:33:20;;;;;;;702.25;318.45;;;;;;;12.85;100.00;97403.28;5020868;28;20022;-56
2023/12/10 10:35:46;;;;;;;653.42;358.42;;;;;;;13.58;100.00;97392.94;5021016;28;20155;-54
2023/12/10 10:38:11;;;;;;;769.20;385.35;;;;;;;13.83;100.00;97397.53;5019031;28;20065;-56
2023/12/10 10:40:36;;;;;;;676.03;319.52;;;;;;;14.91;100.00;97408.53;5020385;28;20131;-54
2023/12/10 10:43:03;;;;;;;643.15;333.58;;;;;;;14.77;100.00;97385.38;5018960;28;20405;-55
2023/12/10 10:45:28;;;;;;;649.85;324.75;;;;;;;14.90;100.00;97396.34;5021227;28;20599;-55
2023/12/10 10:47:54;;;;;;;666.72;334.33;;;;;;;13.99;100.00;97391.94;5020321;28;20112;-55
2023/12/10 10:50:19;;;;;;;710.85;324.02;;;;;;;14.71;100.00;97396.84;5019567;28;20044;-56
2023/12/10 10:52:46;;;;;;;617.40;304.95;;;;;;;14.64;100.00;97386.63;5020451;28;20056;-56